createdAt,value
2022-10-11T00:01:01.200Z,11.90
2022-10-11T00:03:36.359Z,11.10
2022-10-11T00:06:06.630Z,9.40
2022-10-11T00:08:35.321Z,8.90
2022-10-11T00:11:07.554Z,8.90
2022-10-11T00:13:36.044Z,9.60
2022-10-11T00:16:09.985Z,10.00
2022-10-11T00:18:39.276Z,11.20
2022-10-11T00:21:12.160Z,7.00
2022-10-11T00:23:41.163Z,7.90
2022-10-11T00:26:11.421Z,9.90
2022-10-11T00:28:40.595Z,8.10
2022-10-11T00:31:15.894Z,8.70
2022-10-11T00:33:44.397Z,7.20
2022-10-11T00:36:17.386Z,5.80
2022-10-11T00:38:46.310Z,7.10
2022-10-11T00:41:16.583Z,6.00
2022-10-11T00:43:45.249Z,7.50
2022-10-11T00:46:19.330Z,7.10
2022-10-11T00:48:53.751Z,8.20
2022-10-11T00:51:41.827Z,6.20
2022-10-11T00:54:14.999Z,6.40
2022-10-11T00:56:45.965Z,9.80
2022-10-11T00:59:23.507Z,10.40
2022-10-11T01:01:52.305Z,8.60
2022-10-11T01:04:20.889Z,6.40
2022-10-11T01:06:50.735Z,6.60
2022-10-11T01:09:21.407Z,8.30
2022-10-11T01:11:51.998Z,8.50
2022-10-11T01:14:35.433Z,10.40
2022-10-11T01:17:26.844Z,10.20
2022-10-11T01:20:26.899Z,9.00
2022-10-11T01:23:22.436Z,9.30
2022-10-11T01:26:39.616Z,9.10
2022-10-11T01:29:49.540Z,10.00
2022-10-11T01:32:28.056Z,9.30
2022-10-11T01:35:33.699Z,8.90
2022-10-11T01:38:13.369Z,8.40
2022-10-11T01:40:56.093Z,11.20
2022-10-11T01:43:26.572Z,11.40
2022-10-11T01:45:57.638Z,9.10
2022-10-11T01:48:26.015Z,12.20
2022-10-11T01:51:02.176Z,8.50
2022-10-11T01:53:45.327Z,9.10
2022-10-11T01:56:57.434Z,12.20
2022-10-11T02:00:09.733Z,9.50
2022-10-11T02:02:41.738Z,10.90
2022-10-11T02:05:20.421Z,12.60
2022-10-11T02:08:23.740Z,9.00
2022-10-11T02:11:23.822Z,13.10
2022-10-11T02:14:19.612Z,13.60
2022-10-11T02:17:01.424Z,13.10
2022-10-11T02:19:36.023Z,12.00
2022-10-11T02:22:22.204Z,11.10
2022-10-11T02:24:56.155Z,13.80
2022-10-11T02:27:30.574Z,12.60
2022-10-11T02:30:02.480Z,12.70
2022-10-11T02:32:33.134Z,14.70
2022-10-11T02:35:02.967Z,13.40
2022-10-11T02:37:53.356Z,17.80
2022-10-11T02:40:31.240Z,14.80
2022-10-11T02:43:05.602Z,15.30
2022-10-11T02:45:48.878Z,13.90
2022-10-11T02:48:18.146Z,15.60
2022-10-11T02:50:46.526Z,15.00
2022-10-11T02:53:14.725Z,15.50
2022-10-11T02:55:42.869Z,11.10
2022-10-11T02:58:11.013Z,12.10
2022-10-11T03:00:39.450Z,16.70
2022-10-11T03:03:07.671Z,16.90
2022-10-11T03:05:40.746Z,13.00
2022-10-11T03:08:10.941Z,15.30
2022-10-11T03:10:40.279Z,15.70
2022-10-11T03:13:08.881Z,10.10
2022-10-11T03:15:37.277Z,13.10
2022-10-11T03:18:05.565Z,12.20
2022-10-11T03:20:33.765Z,11.30
2022-10-11T03:23:01.877Z,12.50
2022-10-11T03:25:30.117Z,13.50
2022-10-11T03:27:58.372Z,13.90
2022-10-11T03:30:27.291Z,14.80
2022-10-11T03:32:55.501Z,12.50
2022-10-11T03:35:23.708Z,12.30
2022-10-11T03:37:51.884Z,13.50
2022-10-11T03:40:20.149Z,15.00
2022-10-11T03:42:48.337Z,19.00
2022-10-11T03:45:16.594Z,14.60
2022-10-11T03:47:44.822Z,15.00
2022-10-11T03:50:12.973Z,16.10
2022-10-11T03:52:41.121Z,11.80
2022-10-11T03:55:09.480Z,13.00
2022-10-11T03:57:37.683Z,12.80
2022-10-11T04:00:07.318Z,14.60
2022-10-11T04:02:39.075Z,14.40
2022-10-11T04:05:08.170Z,18.60
2022-10-11T04:07:36.368Z,13.30
2022-10-11T04:10:05.933Z,14.80
2022-10-11T04:12:34.996Z,13.70
2022-10-11T04:15:03.773Z,12.00
2022-10-11T04:17:31.984Z,13.40
2022-10-11T04:20:00.476Z,13.10
2022-10-11T04:22:28.676Z,14.10
2022-10-11T04:24:56.798Z,16.30
2022-10-11T04:27:28.371Z,14.80
2022-10-11T04:29:56.720Z,17.50
2022-10-11T04:32:24.929Z,13.50
2022-10-11T04:34:53.294Z,15.60
2022-10-11T04:37:21.849Z,15.70
2022-10-11T04:39:50.066Z,17.60
2022-10-11T04:42:18.325Z,12.80
2022-10-11T04:44:46.876Z,19.50
2022-10-11T04:47:15.198Z,12.10
2022-10-11T04:49:43.361Z,18.60
2022-10-11T04:52:11.611Z,21.10
2022-10-11T04:54:39.753Z,15.70
2022-10-11T04:57:07.966Z,17.10
2022-10-11T04:59:36.128Z,15.40
2022-10-11T05:02:04.367Z,17.30
2022-10-11T05:04:32.893Z,15.20
2022-10-11T05:07:01.131Z,15.00
2022-10-11T05:09:29.299Z,14.80
2022-10-11T05:11:57.729Z,12.90
2022-10-11T05:14:25.960Z,19.60
2022-10-11T05:16:54.108Z,21.70
2022-10-11T05:19:22.390Z,21.60
2022-10-11T05:21:50.698Z,13.70
2022-10-11T05:24:18.889Z,16.50
2022-10-11T05:26:47.076Z,12.90
2022-10-11T05:29:15.205Z,14.40
2022-10-11T05:31:43.406Z,11.40
2022-10-11T05:34:11.606Z,14.00
2022-10-11T05:36:39.918Z,15.70
2022-10-11T05:39:08.238Z,19.30
2022-10-11T05:41:36.608Z,17.60
2022-10-11T05:44:05.233Z,15.00
2022-10-11T05:46:33.547Z,19.50
2022-10-11T05:49:01.992Z,15.20
2022-10-11T05:51:30.521Z,17.00
2022-10-11T05:53:58.821Z,12.90
2022-10-11T05:56:27.266Z,15.50
2022-10-11T05:58:59.944Z,14.90
2022-10-11T06:01:30.578Z,16.70
2022-10-11T06:03:58.930Z,15.00
2022-10-11T06:06:27.250Z,17.40
2022-10-11T06:08:55.628Z,15.00
2022-10-11T06:11:27.637Z,15.50
2022-10-11T06:14:00.643Z,14.20
2022-10-11T06:16:29.022Z,11.60
2022-10-11T06:18:57.764Z,14.30
2022-10-11T06:21:26.411Z,16.10
2022-10-11T06:24:00.814Z,23.90
2022-10-11T06:26:30.509Z,16.80
2022-10-11T06:28:59.252Z,18.00
2022-10-11T06:31:27.716Z,16.40
2022-10-11T06:33:56.091Z,14.70
2022-10-11T06:36:24.979Z,10.90
2022-10-11T06:38:55.098Z,14.20
2022-10-11T06:41:26.911Z,12.50
2022-10-11T06:43:56.274Z,13.50
2022-10-11T06:46:27.696Z,18.90
2022-10-11T06:48:56.607Z,14.80
2022-10-11T06:51:25.911Z,17.40
2022-10-11T06:53:57.984Z,14.40
2022-10-11T06:56:28.095Z,20.40
2022-10-11T06:58:58.576Z,15.40
2022-10-11T07:01:28.112Z,9.90
2022-10-11T07:03:58.151Z,8.40
2022-10-11T07:06:29.397Z,8.00
2022-10-11T07:09:00.417Z,8.20
2022-10-11T07:11:29.651Z,8.30
2022-10-11T07:14:04.353Z,6.10
2022-10-11T07:16:32.765Z,7.10
2022-10-11T07:19:03.336Z,7.20
2022-10-11T07:21:34.210Z,7.70
2022-10-11T07:24:03.329Z,8.80
2022-10-11T07:26:38.231Z,9.00
2022-10-11T07:29:09.610Z,6.90
2022-10-11T07:31:43.655Z,9.00
2022-10-11T07:34:12.185Z,8.40
2022-10-11T07:36:40.574Z,8.80
2022-10-11T07:39:08.981Z,9.30
2022-10-11T07:41:43.108Z,11.70
2022-10-11T07:44:14.853Z,12.30
2022-10-11T07:46:43.014Z,12.70
2022-10-11T07:49:11.216Z,8.20
2022-10-11T07:51:39.400Z,7.80
2022-10-11T07:54:07.757Z,9.50
2022-10-11T07:56:38.082Z,14.60
2022-10-11T07:59:06.550Z,8.00
2022-10-11T08:01:34.781Z,9.20
2022-10-11T08:04:03.270Z,8.00
2022-10-11T08:06:32.840Z,8.60
2022-10-11T08:09:02.144Z,9.00
2022-10-11T08:11:37.989Z,7.30
2022-10-11T08:14:11.300Z,13.10
2022-10-11T08:16:39.915Z,9.00
2022-10-11T08:19:08.137Z,7.80
2022-10-11T08:21:36.483Z,9.10
2022-10-11T08:24:06.204Z,6.70
2022-10-11T08:26:34.967Z,9.90
2022-10-11T08:29:04.101Z,7.20
2022-10-11T08:31:34.084Z,7.80
2022-10-11T08:34:02.872Z,4.50
2022-10-11T08:36:31.240Z,6.50
2022-10-11T08:39:01.206Z,4.00
2022-10-11T08:41:46.353Z,9.00
2022-10-11T08:45:05.859Z,6.80
2022-10-11T08:47:37.142Z,5.40
2022-10-11T08:50:08.339Z,6.60
2022-10-11T08:53:04.209Z,7.60
2022-10-11T08:55:44.206Z,10.90
2022-10-11T08:58:18.087Z,8.70
2022-10-11T09:00:48.342Z,7.90
2022-10-11T09:03:39.572Z,7.10
2022-10-11T09:06:54.948Z,6.80
2022-10-11T09:09:38.715Z,7.20
2022-10-11T09:12:45.043Z,8.60
2022-10-11T09:15:38.338Z,7.30
2022-10-11T09:18:58.231Z,9.30
2022-10-11T09:22:08.597Z,6.70
2022-10-11T09:25:06.025Z,7.60
2022-10-11T09:28:04.487Z,8.30
2022-10-11T09:30:33.533Z,8.20
2022-10-11T09:33:24.797Z,5.90
2022-10-11T09:35:53.090Z,8.00
2022-10-11T09:38:54.578Z,9.60
2022-10-11T09:41:52.606Z,8.20
2022-10-11T09:44:27.420Z,6.50
2022-10-11T09:46:57.468Z,6.50
2022-10-11T09:49:34.070Z,8.20
2022-10-11T09:52:07.111Z,8.40
2022-10-11T09:54:48.220Z,8.60
2022-10-11T09:57:31.960Z,6.30
2022-10-11T10:00:19.814Z,11.10
2022-10-11T10:02:51.626Z,7.90
2022-10-11T10:05:31.685Z,7.70
2022-10-11T10:08:07.208Z,10.50
2022-10-11T10:10:41.043Z,7.50
2022-10-11T10:13:41.851Z,8.00
2022-10-11T10:16:30.548Z,9.80
2022-10-11T10:19:06.867Z,5.80
2022-10-11T10:21:46.746Z,10.90
2022-10-11T10:24:33.553Z,7.80
2022-10-11T10:27:10.503Z,7.20
2022-10-11T10:29:39.623Z,4.10
2022-10-11T10:32:23.778Z,5.80
2022-10-11T10:35:09.586Z,6.00
2022-10-11T10:37:56.830Z,7.00
2022-10-11T10:40:43.665Z,6.80
2022-10-11T10:43:18.156Z,6.70
2022-10-11T10:46:06.107Z,4.10
2022-10-11T10:49:28.422Z,2.50
2022-10-11T10:51:48.318Z,4.50
2022-10-11T10:54:34.965Z,4.00
2022-10-11T10:57:28.621Z,4.70
2022-10-11T11:00:19.647Z,4.90
2022-10-11T11:03:11.340Z,7.30
2022-10-11T11:06:07.799Z,3.10
2022-10-11T11:09:10.167Z,4.20
2022-10-11T11:11:53.128Z,4.10
2022-10-11T11:14:29.395Z,4.80
2022-10-11T11:17:19.401Z,4.00
2022-10-11T11:20:18.791Z,4.40
2022-10-11T11:23:11.646Z,4.20
2022-10-11T11:25:59.254Z,4.70
2022-10-11T11:28:50.434Z,2.00
2022-10-11T11:31:49.936Z,4.20
2022-10-11T11:34:37.129Z,4.00
2022-10-11T11:37:32.390Z,4.70
2022-10-11T11:40:15.649Z,4.10
2022-10-11T11:42:59.727Z,5.10
2022-10-11T11:45:45.713Z,2.10
2022-10-11T11:48:27.217Z,3.60
2022-10-11T11:51:21.996Z,5.50
2022-10-11T11:54:28.311Z,3.70
2022-10-11T11:57:23.897Z,3.70
2022-10-11T12:00:03.844Z,4.70
2022-10-11T12:02:48.055Z,3.10
2022-10-11T12:05:22.004Z,3.40
2022-10-11T12:08:28.182Z,5.50
2022-10-11T12:11:01.420Z,6.10
2022-10-11T12:13:37.560Z,4.70
2022-10-11T12:16:15.710Z,6.00
2022-10-11T12:19:03.943Z,5.60
2022-10-11T12:21:37.163Z,5.10
2022-10-11T12:24:20.615Z,3.30
2022-10-11T12:26:54.366Z,3.20
2022-10-11T12:29:46.258Z,3.80
2022-10-11T12:32:36.273Z,4.60
2022-10-11T12:35:32.337Z,5.00
2022-10-11T12:38:28.890Z,3.20
2022-10-11T12:41:09.086Z,5.00
2022-10-11T12:43:49.311Z,5.00
2022-10-11T12:47:10.187Z,3.90
2022-10-11T12:50:02.836Z,3.40
2022-10-11T12:52:50.918Z,6.60
2022-10-11T12:55:52.169Z,4.90
2022-10-11T12:58:44.149Z,4.50
2022-10-11T13:01:25.573Z,4.40
2022-10-11T13:04:05.145Z,4.30
2022-10-11T13:06:44.621Z,5.20
2022-10-11T13:09:39.350Z,8.50
2022-10-11T13:12:21.566Z,7.40
2022-10-11T13:15:03.994Z,6.50
2022-10-11T13:17:38.627Z,4.80
2022-10-11T13:20:18.611Z,5.90
2022-10-11T13:22:53.391Z,4.90
2022-10-11T13:25:27.279Z,4.90
2022-10-11T13:30:31.772Z,7.70
2022-10-11T13:33:01.792Z,9.30
2022-10-11T13:35:32.580Z,5.40
2022-10-11T13:38:02.786Z,6.20
2022-10-11T13:40:31.754Z,5.80
2022-10-11T13:43:00.325Z,6.20
2022-10-11T13:45:30.804Z,4.40
2022-10-11T13:47:59.371Z,5.60
2022-10-11T13:50:35.375Z,6.80
2022-10-11T13:53:23.598Z,5.70
2022-10-11T13:55:59.461Z,5.60
2022-10-11T13:58:30.325Z,5.10
2022-10-11T14:01:07.924Z,6.60
2022-10-11T14:04:02.773Z,4.70
2022-10-11T14:06:58.267Z,5.60
2022-10-11T14:09:36.997Z,8.00
2022-10-11T14:12:44.394Z,4.00
2022-10-11T14:15:27.365Z,5.20
2022-10-11T14:17:55.616Z,4.50
2022-10-11T14:20:41.820Z,7.50
2022-10-11T14:23:10.039Z,5.00
2022-10-11T14:25:38.253Z,4.30
2022-10-11T14:28:13.083Z,3.70
2022-10-11T14:30:42.395Z,5.10
2022-10-11T14:33:12.064Z,5.90
2022-10-11T14:35:41.745Z,4.90
2022-10-11T14:38:12.127Z,5.20
2022-10-11T14:40:40.482Z,6.00
2022-10-11T14:43:08.629Z,3.50
2022-10-11T14:45:36.974Z,5.00
2022-10-11T14:48:05.331Z,6.30
2022-10-11T14:50:51.966Z,5.00
2022-10-11T14:53:20.457Z,4.60
2022-10-11T14:55:49.119Z,5.40
2022-10-11T14:58:18.374Z,6.60
2022-10-11T15:00:46.625Z,6.00
2022-10-11T15:03:15.531Z,5.10
2022-10-11T15:05:43.715Z,4.10
2022-10-11T15:08:12.216Z,6.60
2022-10-11T15:10:41.494Z,4.90
2022-10-11T15:13:10.224Z,9.60
2022-10-11T15:15:41.539Z,8.10
2022-10-11T15:18:13.658Z,13.80
2022-10-11T15:20:45.106Z,5.10
2022-10-11T15:23:13.990Z,10.30
2022-10-11T15:25:42.885Z,7.20
2022-10-11T15:28:31.399Z,8.10
2022-10-11T15:31:00.725Z,4.20
2022-10-11T15:33:29.062Z,5.80
2022-10-11T15:35:57.302Z,7.20
2022-10-11T15:38:26.069Z,4.90
2022-10-11T15:40:54.667Z,6.80
2022-10-11T15:43:24.904Z,6.50
2022-10-11T15:45:55.508Z,6.10
2022-10-11T15:48:26.465Z,5.20
2022-10-11T15:50:55.477Z,3.90
2022-10-11T15:53:30.125Z,5.70
2022-10-11T15:56:03.793Z,4.20
2022-10-11T15:58:41.658Z,8.30
2022-10-11T16:01:18.863Z,4.70
2022-10-11T16:03:49.307Z,5.70
2022-10-11T16:06:18.980Z,6.20
2022-10-11T16:08:48.051Z,4.50
2022-10-11T16:11:16.287Z,7.40
2022-10-11T16:13:45.239Z,6.30
2022-10-11T16:16:13.457Z,4.80
2022-10-11T16:18:41.631Z,5.20
2022-10-11T16:21:13.457Z,10.60
2022-10-11T16:23:42.122Z,21.70
2022-10-11T16:26:16.374Z,14.00
2022-10-11T16:31:20.680Z,9.30
2022-10-11T16:33:50.267Z,7.30
2022-10-11T16:36:32.544Z,8.00
2022-10-11T16:39:03.832Z,8.80
2022-10-11T16:41:32.002Z,7.20
2022-10-11T16:44:00.325Z,8.20
2022-10-11T16:46:28.733Z,7.20
2022-10-11T16:48:57.026Z,7.00
2022-10-11T16:51:25.417Z,7.80
2022-10-11T16:53:53.679Z,7.00
2022-10-11T16:56:24.210Z,5.50
2022-10-11T16:58:53.514Z,11.60
2022-10-11T17:01:22.421Z,6.60
2022-10-11T17:03:51.255Z,6.10
2022-10-11T17:06:20.038Z,6.50
2022-10-11T17:08:48.218Z,5.60
2022-10-11T17:11:21.758Z,7.00
2022-10-11T17:13:53.307Z,12.30
2022-10-11T17:16:22.838Z,7.90
2022-10-11T17:18:51.046Z,8.00
2022-10-11T17:21:21.867Z,7.20
2022-10-11T17:23:50.656Z,5.40
2022-10-11T17:26:26.268Z,7.90
2022-10-11T17:28:57.484Z,5.40
2022-10-11T17:31:26.581Z,8.50
2022-10-11T17:33:57.648Z,8.80
2022-10-11T17:36:34.607Z,9.60
2022-10-11T17:39:07.811Z,8.00
2022-10-11T17:41:36.345Z,8.90
2022-10-11T17:44:05.135Z,7.00
2022-10-11T17:46:34.125Z,9.30
2022-10-11T17:49:07.215Z,8.60
2022-10-11T17:51:37.222Z,8.90
2022-10-11T17:54:06.413Z,7.70
2022-10-11T17:56:38.296Z,7.50
2022-10-11T17:59:08.257Z,7.70
2022-10-11T18:01:36.923Z,9.60
2022-10-11T18:04:06.376Z,6.40
2022-10-11T18:06:39.753Z,9.40
2022-10-11T18:09:08.107Z,9.80
2022-10-11T18:11:36.394Z,10.00
2022-10-11T18:14:05.395Z,7.60
2022-10-11T18:16:34.871Z,8.50
2022-10-11T18:19:07.189Z,9.60
2022-10-11T18:21:37.779Z,7.70
2022-10-11T18:24:15.166Z,6.50
2022-10-11T18:26:45.411Z,7.00
2022-10-11T18:29:15.497Z,8.20
2022-10-11T18:31:43.768Z,8.10
2022-10-11T18:34:13.929Z,8.60
2022-10-11T18:36:42.494Z,7.80
2022-10-11T18:39:14.366Z,6.40
2022-10-11T18:41:44.676Z,6.50
2022-10-11T18:44:15.485Z,5.20
2022-10-11T18:46:44.874Z,7.90
2022-10-11T18:49:13.822Z,6.40
2022-10-11T18:51:43.194Z,5.70
2022-10-11T18:54:15.353Z,6.50
2022-10-11T18:56:46.673Z,7.00
2022-10-11T18:59:15.121Z,5.40
2022-10-11T19:01:45.024Z,4.90
2022-10-11T19:04:16.105Z,6.40
2022-10-11T19:06:47.889Z,9.20
2022-10-11T19:09:24.823Z,7.80
2022-10-11T19:11:55.890Z,9.20
2022-10-11T19:14:31.355Z,8.20
2022-10-11T19:17:00.003Z,5.80
2022-10-11T19:19:29.900Z,8.50
2022-10-11T19:21:58.161Z,9.80
2022-10-11T19:24:28.877Z,8.40
2022-10-11T19:27:02.253Z,7.00
2022-10-11T19:29:32.636Z,9.80
2022-10-11T19:32:03.607Z,11.70
2022-10-11T19:34:32.806Z,8.40
2022-10-11T19:37:01.410Z,8.30
2022-10-11T19:39:30.012Z,8.90
2022-10-11T19:41:58.286Z,9.00
2022-10-11T19:44:26.906Z,6.90
2022-10-11T19:46:55.145Z,7.10
2022-10-11T19:49:25.832Z,9.90
2022-10-11T19:51:55.649Z,7.30
2022-10-11T19:54:24.215Z,7.60
2022-10-11T19:56:52.760Z,7.80
2022-10-11T19:59:21.078Z,7.30
2022-10-11T20:01:53.047Z,12.90
2022-10-11T20:07:10.803Z,8.70
2022-10-11T20:09:39.124Z,9.70
2022-10-11T20:12:07.826Z,7.60
2022-10-11T20:14:35.979Z,7.90
2022-10-11T20:17:04.187Z,10.90
2022-10-11T20:19:32.551Z,9.60
2022-10-11T20:22:01.296Z,8.20
2022-10-11T20:24:33.625Z,8.00
2022-10-11T20:27:05.099Z,8.60
2022-10-11T20:29:33.852Z,7.20
2022-10-11T20:32:01.982Z,12.30
2022-10-11T20:34:30.733Z,10.30
2022-10-11T20:36:59.581Z,6.90
2022-10-11T20:39:27.750Z,9.00
2022-10-11T20:41:55.952Z,8.10
2022-10-11T20:44:24.228Z,8.90
2022-10-11T20:46:52.507Z,8.30
2022-10-11T20:49:20.778Z,12.10
2022-10-11T20:51:49.341Z,11.90
2022-10-11T20:54:17.616Z,12.20
2022-10-11T20:56:46.116Z,10.50
2022-10-11T20:59:14.264Z,8.90
2022-10-11T21:01:42.817Z,9.70
2022-10-11T21:04:20.630Z,8.40
2022-10-11T21:06:49.345Z,6.80
2022-10-11T21:09:17.762Z,7.10
2022-10-11T21:11:46.460Z,8.30
2022-10-11T21:14:15.110Z,8.10
2022-10-11T21:16:43.442Z,9.50
2022-10-11T21:19:15.177Z,8.10
2022-10-11T21:21:46.420Z,8.80
2022-10-11T21:24:16.596Z,9.10
2022-10-11T21:26:44.807Z,8.90
2022-10-11T21:29:13.054Z,6.90
2022-10-11T21:31:41.278Z,7.80
2022-10-11T21:34:09.433Z,10.10
2022-10-11T21:36:37.796Z,9.80
2022-10-11T21:39:05.936Z,10.10
2022-10-11T21:41:34.156Z,12.80
2022-10-11T21:44:02.441Z,9.80
2022-10-11T21:47:01.275Z,9.00
2022-10-11T21:49:20.525Z,7.60
2022-10-11T21:51:48.894Z,9.50
2022-10-11T21:54:19.296Z,14.80
2022-10-11T21:56:47.575Z,8.00
2022-10-11T21:59:16.019Z,8.10
2022-10-11T22:01:44.293Z,10.10
2022-10-11T22:04:12.754Z,8.80
2022-10-11T22:06:40.956Z,10.60
2022-10-11T22:09:09.269Z,12.90
2022-10-11T22:11:37.493Z,8.00
2022-10-11T22:14:05.780Z,10.90
2022-10-11T22:16:36.255Z,9.50
2022-10-11T22:19:04.727Z,9.20
2022-10-11T22:21:32.904Z,10.90
2022-10-11T22:24:01.215Z,9.30
2022-10-11T22:26:31.404Z,9.80
2022-10-11T22:29:00.687Z,11.70
2022-10-11T22:31:30.226Z,10.70
2022-10-11T22:34:00.584Z,15.60
2022-10-11T22:36:33.873Z,11.50
2022-10-11T22:39:07.780Z,13.10
2022-10-11T22:41:37.003Z,11.40
2022-10-11T22:44:05.937Z,8.90
2022-10-11T22:46:34.149Z,8.70
2022-10-11T22:49:02.421Z,11.60
2022-10-11T22:51:30.679Z,12.10
2022-10-11T22:53:59.001Z,13.10
2022-10-11T22:56:27.263Z,13.40
2022-10-11T22:58:55.512Z,10.10
2022-10-11T23:01:23.689Z,11.00
2022-10-11T23:03:51.974Z,13.00
2022-10-11T23:06:20.269Z,10.90
2022-10-11T23:08:48.619Z,10.80
2022-10-11T23:11:16.795Z,13.50
2022-10-11T23:13:44.959Z,11.00
2022-10-11T23:16:14.061Z,12.90
2022-10-11T23:18:42.308Z,14.40
2022-10-11T23:21:10.954Z,12.60
2022-10-11T23:23:39.958Z,13.40
2022-10-11T23:26:15.161Z,13.30
2022-10-11T23:28:43.996Z,15.50
2022-10-11T23:31:16.679Z,14.30
2022-10-11T23:33:46.268Z,14.30
2022-10-11T23:36:24.187Z,16.70
2022-10-11T23:38:57.923Z,18.80
2022-10-11T23:41:30.630Z,15.30
2022-10-11T23:43:58.970Z,14.10
2022-10-11T23:46:27.429Z,14.80
2022-10-11T23:48:55.772Z,19.90
2022-10-11T23:51:24.098Z,16.40
2022-10-11T23:53:52.529Z,15.50
2022-10-11T23:56:20.825Z,14.30
2022-10-11T23:58:49.010Z,15.60
